createdAt,value
2023-03-15T00:01:11.475Z,5.22
2023-03-15T00:06:08.170Z,4.82
2023-03-15T00:11:04.860Z,6.85
2023-03-15T00:16:03.359Z,5.72
2023-03-15T00:20:59.959Z,5.50
2023-03-15T00:25:56.423Z,5.40
2023-03-15T00:31:06.414Z,2.53
2023-03-15T00:36:05.286Z,4.93
2023-03-15T00:41:13.163Z,4.07
2023-03-15T00:46:10.251Z,8.00
2023-03-15T00:56:16.451Z,12.88
2023-03-15T01:01:21.722Z,4.78
2023-03-15T01:06:23.764Z,9.02
2023-03-15T01:11:24.278Z,5.38
2023-03-15T01:16:21.200Z,4.43
2023-03-15T01:21:18.420Z,4.18
2023-03-15T01:26:16.235Z,7.45
2023-03-15T01:31:38.976Z,4.53
2023-03-15T01:36:35.570Z,5.60
2023-03-15T01:41:32.073Z,4.63
2023-03-15T01:46:37.309Z,6.30
2023-03-15T01:51:43.225Z,8.57
2023-03-15T01:57:04.008Z,6.53
2023-03-15T02:02:00.964Z,5.25
2023-03-15T02:11:56.950Z,5.72
2023-03-15T02:16:53.537Z,5.05
2023-03-15T02:22:16.249Z,5.07
2023-03-15T02:27:12.731Z,4.45
2023-03-15T02:32:09.273Z,7.25
2023-03-15T02:37:05.716Z,5.15
2023-03-15T02:42:02.357Z,4.13
2023-03-15T02:47:15.377Z,5.00
2023-03-15T02:52:13.858Z,7.32
2023-03-15T02:57:11.796Z,5.22
2023-03-15T03:02:22.379Z,5.00
2023-03-15T03:07:19.270Z,5.72
2023-03-15T03:12:15.765Z,6.20
2023-03-15T03:17:12.253Z,4.88
2023-03-15T03:22:08.729Z,6.05
2023-03-15T03:27:05.736Z,4.90
2023-03-15T03:37:00.674Z,5.78
2023-03-15T03:41:57.188Z,8.02
2023-03-15T03:46:53.686Z,7.75
2023-03-15T03:51:51.302Z,7.63
2023-03-15T03:56:48.430Z,8.07
2023-03-15T04:06:45.523Z,5.63
2023-03-15T04:11:42.948Z,8.15
2023-03-15T04:16:40.167Z,4.72
2023-03-15T04:21:37.063Z,3.30
2023-03-15T04:26:34.456Z,3.42
2023-03-15T04:31:37.633Z,6.75
2023-03-15T04:36:34.174Z,3.72
2023-03-15T04:41:36.450Z,5.30
2023-03-15T04:46:33.883Z,5.10
2023-03-15T04:51:30.595Z,4.43
2023-03-15T04:56:28.189Z,5.78
2023-03-15T05:01:29.119Z,5.13
2023-03-15T05:06:25.586Z,5.57
2023-03-15T05:11:22.119Z,5.80
2023-03-15T05:16:18.632Z,5.72
2023-03-15T05:21:15.174Z,8.70
2023-03-15T05:26:11.618Z,6.97
2023-03-15T05:31:08.140Z,11.52
2023-03-15T05:36:05.174Z,15.63
2023-03-15T05:41:02.230Z,10.35
2023-03-15T05:50:55.001Z,9.13
2023-03-15T05:55:51.565Z,11.65
2023-03-15T06:00:49.210Z,10.65
2023-03-15T06:05:45.660Z,10.98
2023-03-15T06:10:42.144Z,10.52
2023-03-15T06:15:38.608Z,10.82
2023-03-15T06:20:35.685Z,8.77
2023-03-15T06:30:28.767Z,7.70
2023-03-15T06:35:25.293Z,10.88
2023-03-15T06:40:21.757Z,11.57
2023-03-15T06:45:18.270Z,10.60
2023-03-15T06:50:14.782Z,8.70
2023-03-15T06:55:12.478Z,9.75
2023-03-15T07:00:11.235Z,9.23
2023-03-15T07:05:08.290Z,11.50
2023-03-15T07:15:01.739Z,11.63
2023-03-15T07:20:00.213Z,8.75
2023-03-15T07:24:56.673Z,10.55
2023-03-15T07:29:53.240Z,9.82
2023-03-15T07:34:49.676Z,9.98
2023-03-15T07:39:55.359Z,9.00
2023-03-15T07:44:51.790Z,9.30
2023-03-15T07:49:48.254Z,4.65
2023-03-15T07:54:44.739Z,5.35
2023-03-15T07:59:41.216Z,7.40
2023-03-15T08:04:37.680Z,5.22
2023-03-15T08:09:34.724Z,5.47
2023-03-15T08:19:28.062Z,5.93
2023-03-15T08:24:24.939Z,6.50
2023-03-15T08:29:21.602Z,5.63
2023-03-15T08:34:18.056Z,6.07
2023-03-15T08:39:14.574Z,5.45
2023-03-15T08:44:13.210Z,5.32
2023-03-15T08:49:09.674Z,5.65
2023-03-15T08:54:07.086Z,4.78
2023-03-15T08:59:03.539Z,5.93
2023-03-15T09:04:00.109Z,5.97
2023-03-15T09:08:56.747Z,6.45
2023-03-15T09:13:53.231Z,4.10
2023-03-15T09:18:49.743Z,3.33
2023-03-15T09:23:46.238Z,6.18
2023-03-15T09:28:48.676Z,7.35
2023-03-15T09:33:48.069Z,7.20
2023-03-15T09:38:44.652Z,6.10
2023-03-15T09:44:19.661Z,5.60
2023-03-15T09:49:18.725Z,4.45
2023-03-15T09:54:23.839Z,5.25
2023-03-15T09:59:22.722Z,9.68
2023-03-15T10:04:40.387Z,5.88
2023-03-15T10:09:36.843Z,6.77
2023-03-15T10:14:51.541Z,5.85
2023-03-15T10:19:52.264Z,6.65
2023-03-15T10:24:55.451Z,8.07
2023-03-15T10:29:54.047Z,7.70
2023-03-15T10:34:52.460Z,6.05
2023-03-15T10:39:55.954Z,4.20
2023-03-15T10:44:52.465Z,7.75
2023-03-15T10:49:49.732Z,12.93
2023-03-15T10:54:46.433Z,7.75
2023-03-15T11:00:17.397Z,5.50
2023-03-15T11:05:18.624Z,5.97
2023-03-15T11:10:22.732Z,2.25
2023-03-15T11:15:19.406Z,2.70
2023-03-15T11:20:16.554Z,1.77
2023-03-15T11:25:17.005Z,3.90
2023-03-15T11:30:15.101Z,5.75
2023-03-15T11:35:17.991Z,9.23
2023-03-15T11:40:43.108Z,6.25
2023-03-15T11:46:20.702Z,6.85
2023-03-15T11:51:17.371Z,4.72
2023-03-15T11:56:25.570Z,6.82
2023-03-15T12:01:26.491Z,4.93
2023-03-15T12:06:49.113Z,4.75
2023-03-15T12:11:45.599Z,4.88
2023-03-15T12:16:43.620Z,7.85
2023-03-15T12:21:41.882Z,7.88
2023-03-15T12:26:43.688Z,4.35
2023-03-15T12:31:45.021Z,9.38
2023-03-15T12:36:47.127Z,5.18
2023-03-15T12:41:46.555Z,4.07
2023-03-15T12:46:42.900Z,8.52
2023-03-15T12:52:00.199Z,7.78
2023-03-15T12:57:00.077Z,5.13
2023-03-15T13:01:58.018Z,6.45
2023-03-15T13:07:10.384Z,7.60
2023-03-15T13:12:15.251Z,4.28
2023-03-15T13:17:31.498Z,6.82
2023-03-15T13:22:36.016Z,6.97
2023-03-15T13:28:14.818Z,6.10
2023-03-15T13:33:21.675Z,6.53
2023-03-15T13:38:32.699Z,9.60
2023-03-15T13:43:33.015Z,7.97
2023-03-15T13:48:31.629Z,11.05
2023-03-15T13:53:46.607Z,7.82
2023-03-15T13:58:45.344Z,8.95
2023-03-15T14:03:43.874Z,10.25
2023-03-15T14:08:40.738Z,10.02
2023-03-15T14:13:56.121Z,11.90
2023-03-15T14:18:52.810Z,10.15
2023-03-15T14:23:49.593Z,10.88
2023-03-15T14:28:56.381Z,7.88
2023-03-15T14:33:55.708Z,11.27
2023-03-15T14:38:53.992Z,8.27
2023-03-15T14:43:50.488Z,12.20
2023-03-15T14:48:46.960Z,6.85
2023-03-15T14:53:43.906Z,7.57
2023-03-15T15:03:46.675Z,7.95
2023-03-15T15:08:46.880Z,5.85
2023-03-15T15:13:43.402Z,11.38
2023-03-15T15:18:39.936Z,6.18
2023-03-15T15:23:54.975Z,10.73
2023-03-15T15:28:56.536Z,11.13
2023-03-15T15:33:54.484Z,11.43
2023-03-15T15:38:51.252Z,11.23
2023-03-15T15:43:47.730Z,9.00
2023-03-15T15:48:44.471Z,9.85
2023-03-15T15:53:40.901Z,9.15
2023-03-15T15:58:37.386Z,14.23
2023-03-15T16:03:34.282Z,11.18
2023-03-15T16:13:27.877Z,7.25
2023-03-15T16:18:24.526Z,7.78
2023-03-15T16:23:23.499Z,6.78
2023-03-15T16:28:20.061Z,8.85
2023-03-15T16:33:19.427Z,5.50
2023-03-15T16:38:25.904Z,10.23
2023-03-15T16:43:22.412Z,12.10
2023-03-15T16:48:18.923Z,7.47
2023-03-15T16:53:15.534Z,12.43
2023-03-15T16:58:17.625Z,7.90
2023-03-15T17:03:16.895Z,9.48
2023-03-15T17:08:17.766Z,5.88
2023-03-15T17:13:16.051Z,15.40
2023-03-15T17:18:21.997Z,12.52
2023-03-15T17:23:20.795Z,8.55
2023-03-15T17:28:18.890Z,11.95
2023-03-15T17:58:23.904Z,9.40
2023-03-15T18:03:25.298Z,11.68
2023-03-15T18:08:24.909Z,16.40
2023-03-15T18:13:21.931Z,11.15
2023-03-15T18:23:16.291Z,8.43
2023-03-15T18:28:12.859Z,8.63
2023-03-15T20:44:32.553Z,17.40
2023-03-15T20:49:29.488Z,7.32
2023-03-15T20:54:26.059Z,14.18
2023-03-15T20:59:22.612Z,12.00
2023-03-15T21:04:21.987Z,14.98
2023-03-15T21:09:18.438Z,13.40
2023-03-15T21:14:15.036Z,13.65
2023-03-15T21:19:11.513Z,13.18
2023-03-15T21:24:08.029Z,12.55
2023-03-15T21:29:05.239Z,12.02
2023-03-15T21:34:01.782Z,13.93
2023-03-15T21:38:59.708Z,10.50
2023-03-15T21:43:56.288Z,12.75
2023-03-15T21:48:52.790Z,10.02
2023-03-15T21:53:50.349Z,11.52
2023-03-15T21:58:46.899Z,12.23
2023-03-15T22:03:44.223Z,11.73
2023-03-15T22:08:41.037Z,11.20
2023-03-15T22:13:37.632Z,11.30
2023-03-15T22:18:34.138Z,11.98
2023-03-15T22:23:30.675Z,11.57
2023-03-15T22:28:27.177Z,10.05
2023-03-15T22:33:23.719Z,9.60
2023-03-15T22:38:20.219Z,12.25
2023-03-15T22:43:18.171Z,8.63
2023-03-15T22:48:14.672Z,13.40
2023-03-15T22:53:11.112Z,10.40
2023-03-15T22:58:07.618Z,12.70
2023-03-15T23:03:04.106Z,14.85
2023-03-15T23:08:00.706Z,19.70
2023-03-15T23:12:57.194Z,10.77
2023-03-15T23:17:54.454Z,9.48
2023-03-15T23:22:57.097Z,11.10
2023-03-15T23:27:53.582Z,13.88
2023-03-15T23:32:57.376Z,11.05
2023-03-15T23:37:54.205Z,13.43
2023-03-15T23:42:58.640Z,10.73
2023-03-15T23:47:55.536Z,10.43
2023-03-15T23:52:53.329Z,10.05
2023-03-15T23:57:49.972Z,10.75
